createdAt,value
2023-03-11T00:01:58.607Z,1003.76
2023-03-11T00:03:58.562Z,1003.94
2023-03-11T00:05:58.580Z,1003.87
2023-03-11T00:07:58.490Z,1003.96
2023-03-11T00:09:58.505Z,1003.96
2023-03-11T00:11:58.524Z,1004.10
2023-03-11T00:13:58.553Z,1004.10
2023-03-11T00:15:58.492Z,1004.06
2023-03-11T00:17:58.503Z,1004.06
2023-03-11T00:20:28.525Z,1004.06
2023-03-11T00:22:28.492Z,1004.11
2023-03-11T00:24:28.508Z,1004.18
2023-03-11T00:26:28.527Z,1004.18
2023-03-11T00:28:28.683Z,1004.18
2023-03-11T00:30:28.665Z,1004.17
2023-03-11T00:32:28.617Z,1004.17
2023-03-11T00:34:28.480Z,1004.17
2023-03-11T00:36:28.507Z,1004.32
2023-03-11T00:38:28.541Z,1004.32
2023-03-11T00:40:28.513Z,1004.32
2023-03-11T00:42:28.553Z,1004.53
2023-03-11T00:44:28.517Z,1004.32
2023-03-11T00:46:28.712Z,1004.34
2023-03-11T00:48:28.512Z,1004.34
2023-03-11T00:50:28.494Z,1004.34
2023-03-11T00:52:28.505Z,1004.34
2023-03-11T00:54:28.520Z,1004.34
2023-03-11T00:56:28.571Z,1004.20
2023-03-11T00:58:28.520Z,1004.20
2023-03-11T01:00:28.561Z,1004.20
2023-03-11T01:02:28.496Z,1004.43
2023-03-11T01:04:28.644Z,1004.37
2023-03-11T01:06:39.217Z,1004.37
2023-03-11T01:08:28.613Z,1004.37
2023-03-11T01:10:28.580Z,1004.49
2023-03-11T01:12:28.589Z,1004.49
2023-03-11T01:16:28.504Z,1004.43
2023-03-11T01:18:28.581Z,1004.43
2023-03-11T01:22:40.299Z,1004.47
2023-03-11T01:24:40.248Z,1004.47
2023-03-11T01:26:40.262Z,1004.16
2023-03-11T01:28:40.343Z,1004.16
2023-03-11T01:30:40.236Z,1004.33
2023-03-11T01:32:40.300Z,1004.14
2023-03-11T01:34:40.263Z,1004.41
2023-03-11T01:36:40.249Z,1004.41
2023-03-11T01:38:40.240Z,1004.41
2023-03-11T01:40:40.252Z,1004.41
2023-03-11T01:42:40.237Z,1004.41
2023-03-11T01:44:40.237Z,1004.55
2023-03-11T01:46:40.261Z,1004.85
2023-03-11T01:48:40.268Z,1004.85
2023-03-11T01:50:40.298Z,1004.85
2023-03-11T01:52:40.240Z,1004.85
2023-03-11T01:54:40.247Z,1004.98
2023-03-11T01:56:40.285Z,1004.91
2023-03-11T01:58:40.377Z,1004.91
2023-03-11T02:00:40.257Z,1004.91
2023-03-11T02:02:40.307Z,1004.91
2023-03-11T02:04:40.240Z,1005.06
2023-03-11T02:06:40.231Z,1005.06
2023-03-11T02:08:40.267Z,1005.04
2023-03-11T02:10:40.241Z,1005.04
2023-03-11T02:12:40.257Z,1005.02
2023-03-11T02:14:40.266Z,1005.02
2023-03-11T02:16:40.261Z,1005.02
2023-03-11T02:18:40.275Z,1004.99
2023-03-11T02:20:40.268Z,1004.99
2023-03-11T02:22:40.254Z,1005.02
2023-03-11T02:24:40.241Z,1005.12
2023-03-11T02:26:40.275Z,1005.12
2023-03-11T02:28:40.311Z,1005.11
2023-03-11T02:30:40.274Z,1005.14
2023-03-11T02:32:40.399Z,1005.20
2023-03-11T02:34:40.286Z,1005.20
2023-03-11T02:36:40.281Z,1005.20
2023-03-11T02:38:40.266Z,1005.20
2023-03-11T02:40:40.251Z,1005.20
2023-03-11T02:42:40.266Z,1005.20
2023-03-11T02:44:40.286Z,1005.20
2023-03-11T02:46:40.409Z,1005.61
2023-03-11T02:49:10.283Z,1005.61
2023-03-11T02:51:10.335Z,1005.81
2023-03-11T02:53:10.315Z,1005.81
2023-03-11T02:55:12.586Z,1005.81
2023-03-11T02:57:10.297Z,1005.67
2023-03-11T02:59:10.263Z,1005.67
2023-03-11T03:01:10.381Z,1005.67
2023-03-11T03:03:10.345Z,1005.67
2023-03-11T03:05:10.267Z,1005.47
2023-03-11T03:07:10.262Z,1005.47
2023-03-11T03:09:10.305Z,1005.27
2023-03-11T03:11:10.303Z,1005.32
2023-03-11T03:13:10.277Z,1005.32
2023-03-11T03:15:10.295Z,1005.32
2023-03-11T03:17:10.481Z,1005.43
2023-03-11T03:19:10.296Z,1005.53
2023-03-11T03:21:10.315Z,1005.60
2023-03-11T03:23:10.321Z,1005.60
2023-03-11T03:25:10.267Z,1005.60
2023-03-11T03:27:10.281Z,1005.62
2023-03-11T03:29:10.332Z,1005.79
2023-03-11T03:31:10.315Z,1005.79
2023-03-11T03:33:10.354Z,1005.94
2023-03-11T03:35:10.301Z,1006.03
2023-03-11T03:37:10.310Z,1006.03
2023-03-11T03:39:10.288Z,1006.03
2023-03-11T03:41:10.274Z,1006.03
2023-03-11T03:43:10.284Z,1006.03
2023-03-11T03:45:10.303Z,1006.19
2023-03-11T03:47:10.354Z,1006.19
2023-03-11T03:49:10.312Z,1006.10
2023-03-11T03:51:10.298Z,1006.10
2023-03-11T03:53:10.383Z,1006.06
2023-03-11T03:55:10.283Z,1006.06
2023-03-11T03:57:10.421Z,1006.06
2023-03-11T03:59:10.311Z,1006.06
2023-03-11T04:01:10.361Z,1006.06
2023-03-11T04:03:10.488Z,1006.03
2023-03-11T04:05:10.343Z,1006.03
2023-03-11T04:07:10.340Z,1006.03
2023-03-11T04:09:10.286Z,1006.03
2023-03-11T04:11:10.320Z,1006.03
2023-03-11T04:13:10.419Z,1006.03
2023-03-11T04:15:10.346Z,1006.03
2023-03-11T04:17:10.316Z,1006.23
2023-03-11T04:19:10.332Z,1006.23
2023-03-11T04:21:10.328Z,1006.31
2023-03-11T04:23:10.420Z,1006.31
2023-03-11T04:25:10.408Z,1006.31
2023-03-11T04:27:10.474Z,1006.31
2023-03-11T04:29:10.333Z,1006.31
2023-03-11T04:31:10.378Z,1006.42
2023-03-11T04:33:10.326Z,1006.50
2023-03-11T04:35:40.466Z,1006.50
2023-03-11T04:37:40.334Z,1006.50
2023-03-11T04:39:40.329Z,1006.42
2023-03-11T04:41:40.362Z,1006.42
2023-03-11T04:43:40.336Z,1006.43
2023-03-11T04:45:40.346Z,1006.43
2023-03-11T04:47:40.314Z,1006.49
2023-03-11T04:49:40.327Z,1006.49
2023-03-11T04:51:40.339Z,1006.49
2023-03-11T04:53:40.335Z,1006.49
2023-03-11T04:55:40.317Z,1006.49
2023-03-11T04:57:40.370Z,1006.49
2023-03-11T04:59:40.316Z,1006.55
2023-03-11T05:01:40.417Z,1006.55
2023-03-11T05:03:40.321Z,1006.55
2023-03-11T05:05:40.417Z,1006.55
2023-03-11T05:07:40.352Z,1006.55
2023-03-11T05:09:40.333Z,1006.55
2023-03-11T05:11:40.342Z,1006.53
2023-03-11T05:13:40.319Z,1006.53
2023-03-11T05:15:40.365Z,1006.53
2023-03-11T05:17:40.339Z,1006.53
2023-03-11T05:19:40.339Z,1006.53
2023-03-11T05:21:40.338Z,1006.80
2023-03-11T05:23:40.462Z,1006.80
2023-03-11T05:25:40.446Z,1006.80
2023-03-11T05:27:40.345Z,1006.80
2023-03-11T05:29:40.354Z,1006.80
2023-03-11T05:31:40.342Z,1006.80
2023-03-11T05:33:40.537Z,1006.80
2023-03-11T05:35:40.371Z,1006.80
2023-03-11T05:37:40.381Z,1006.80
2023-03-11T05:39:40.450Z,1006.80
2023-03-11T05:41:40.479Z,1006.80
2023-03-11T05:43:40.363Z,1006.80
2023-03-11T05:45:40.404Z,1006.80
2023-03-11T05:47:40.369Z,1006.80
2023-03-11T05:49:40.357Z,1006.80
2023-03-11T05:51:40.354Z,1006.80
2023-03-11T05:53:40.380Z,1006.80
2023-03-11T05:55:40.481Z,1006.80
2023-03-11T05:57:40.354Z,1006.80
2023-03-11T05:59:40.371Z,1006.80
2023-03-11T06:01:40.356Z,1006.80
2023-03-11T06:03:40.439Z,1006.80
2023-03-11T06:05:40.370Z,1006.80
2023-03-11T06:07:40.434Z,1006.80
2023-03-11T06:09:40.499Z,1006.80
2023-03-11T06:11:40.514Z,1006.80
2023-03-11T06:13:40.424Z,1006.80
2023-03-11T06:15:40.388Z,1006.80
2023-03-11T06:17:40.500Z,1006.80
2023-03-11T06:19:40.382Z,1006.80
2023-03-11T06:21:40.364Z,1006.80
2023-03-11T06:24:10.502Z,1006.80
2023-03-11T06:26:10.469Z,1006.80
2023-03-11T06:28:10.369Z,1006.80
2023-03-11T06:30:10.433Z,1006.80
2023-03-11T06:32:10.419Z,1006.80
2023-03-11T06:34:10.769Z,1006.80
2023-03-11T06:36:10.485Z,1006.80
2023-03-11T06:38:10.463Z,1006.80
2023-03-11T06:40:10.407Z,1006.80
2023-03-11T06:42:10.391Z,1006.80
2023-03-11T06:44:10.405Z,1006.80
2023-03-11T06:46:10.460Z,1006.80
2023-03-11T06:48:10.380Z,1006.80
2023-03-11T06:50:10.467Z,1006.80
2023-03-11T06:52:10.466Z,1006.80
2023-03-11T06:54:10.469Z,1006.80
2023-03-11T06:56:10.410Z,1006.80
2023-03-11T06:58:10.383Z,1006.80
2023-03-11T07:00:10.522Z,1006.80
2023-03-11T07:02:10.434Z,1006.80
2023-03-11T07:04:10.531Z,1006.80
2023-03-11T07:06:10.373Z,1006.80
2023-03-11T07:08:10.481Z,1006.80
2023-03-11T07:10:10.605Z,1006.80
2023-03-11T07:12:10.493Z,1006.80
2023-03-11T07:14:10.545Z,1006.80
2023-03-11T07:16:10.600Z,1006.80
2023-03-11T07:18:10.476Z,1006.80
2023-03-11T07:20:10.475Z,1006.80
2023-03-11T07:22:10.491Z,1006.80
2023-03-11T07:24:10.500Z,1006.80
2023-03-11T07:26:10.446Z,1006.80
2023-03-11T07:28:10.403Z,1006.80
2023-03-11T07:30:10.445Z,1006.80
2023-03-11T07:32:10.386Z,1006.80
2023-03-11T07:34:10.413Z,1006.80
2023-03-11T07:36:10.439Z,1008.22
2023-03-11T07:38:10.559Z,1008.22
2023-03-11T07:40:10.525Z,1008.22
2023-03-11T07:42:10.456Z,1008.22
2023-03-11T07:44:10.420Z,1008.34
2023-03-11T07:46:10.507Z,1008.34
2023-03-11T07:48:10.456Z,1008.38
2023-03-11T07:50:10.408Z,1008.38
2023-03-11T07:52:10.602Z,1008.38
2023-03-11T07:54:10.400Z,1008.38
2023-03-11T07:56:10.436Z,1008.49
2023-03-11T07:58:10.396Z,1008.49
2023-03-11T08:00:10.444Z,1008.49
2023-03-11T08:02:10.522Z,1008.49
2023-03-11T08:04:12.918Z,1008.49
2023-03-11T08:06:10.421Z,1008.49
2023-03-11T08:08:10.476Z,1008.49
2023-03-11T08:10:40.505Z,1008.59
2023-03-11T08:12:42.844Z,1008.59
2023-03-11T08:14:40.421Z,1008.59
2023-03-11T08:16:40.419Z,1008.62
2023-03-11T08:20:40.738Z,1008.72
2023-03-11T08:22:55.715Z,1008.72
2023-03-11T08:24:40.525Z,1008.72
2023-03-11T08:26:40.498Z,1008.72
2023-03-11T08:30:41.988Z,1008.87
2023-03-11T08:32:40.545Z,1008.87
2023-03-11T08:34:31.212Z,1008.87
2023-03-11T08:36:31.113Z,1008.87
2023-03-11T08:38:31.078Z,1008.87
2023-03-11T08:40:31.133Z,1008.87
2023-03-11T08:42:31.080Z,1008.87
2023-03-11T08:44:31.051Z,1009.07
2023-03-11T08:46:31.236Z,1009.07
2023-03-11T08:48:31.089Z,1009.10
2023-03-11T08:50:32.372Z,1009.10
2023-03-11T08:52:31.124Z,1009.10
2023-03-11T08:54:31.174Z,1009.11
2023-03-11T08:56:31.159Z,1009.11
2023-03-11T08:58:31.043Z,1009.14
2023-03-11T09:00:31.037Z,1009.14
2023-03-11T09:02:31.139Z,1009.17
2023-03-11T09:04:31.251Z,1009.17
2023-03-11T09:06:31.124Z,1009.17
2023-03-11T09:08:31.057Z,1009.17
2023-03-11T09:10:31.194Z,1009.21
2023-03-11T09:12:31.147Z,1009.28
2023-03-11T09:14:31.098Z,1009.28
2023-03-11T09:16:31.150Z,1009.28
2023-03-11T09:18:31.088Z,1009.28
2023-03-11T09:20:31.125Z,1009.28
2023-03-11T09:22:31.122Z,1009.28
2023-03-11T09:24:31.160Z,1009.28
2023-03-11T09:27:01.135Z,1009.27
2023-03-11T09:29:01.076Z,1009.27
2023-03-11T09:31:01.170Z,1009.27
2023-03-11T09:33:01.100Z,1009.27
2023-03-11T09:35:01.129Z,1009.27
2023-03-11T09:37:01.398Z,1009.27
2023-03-11T09:39:01.188Z,1009.41
2023-03-11T09:41:01.164Z,1009.41
2023-03-11T09:43:01.179Z,1009.41
2023-03-11T09:45:01.202Z,1009.41
2023-03-11T09:47:01.183Z,1009.41
2023-03-11T09:49:01.136Z,1009.41
2023-03-11T09:51:01.172Z,1009.41
2023-03-11T09:53:01.140Z,1009.41
2023-03-11T09:55:01.154Z,1009.52
2023-03-11T09:57:01.170Z,1009.52
2023-03-11T09:59:01.165Z,1009.52
2023-03-11T10:01:01.146Z,1009.58
2023-03-11T10:03:01.198Z,1009.51
2023-03-11T10:05:01.161Z,1009.51
2023-03-11T10:07:01.175Z,1009.51
2023-03-11T10:09:01.172Z,1009.55
2023-03-11T10:11:01.175Z,1009.58
2023-03-11T10:13:01.220Z,1009.62
2023-03-11T10:15:01.261Z,1009.62
2023-03-11T10:17:01.165Z,1009.68
2023-03-11T10:19:01.115Z,1009.63
2023-03-11T10:21:01.151Z,1009.67
2023-03-11T10:23:01.219Z,1009.67
2023-03-11T10:25:01.203Z,1009.67
2023-03-11T10:27:01.247Z,1009.59
2023-03-11T10:29:01.221Z,1009.59
2023-03-11T10:31:01.248Z,1009.62
2023-03-11T10:33:01.117Z,1009.63
2023-03-11T10:35:01.153Z,1009.63
2023-03-11T10:37:01.171Z,1009.61
2023-03-11T10:39:01.182Z,1009.63
2023-03-11T10:41:01.210Z,1009.59
2023-03-11T10:43:01.110Z,1009.59
2023-03-11T10:45:01.233Z,1009.59
2023-03-11T10:47:01.149Z,1009.55
2023-03-11T10:49:01.163Z,1009.56
2023-03-11T10:51:01.213Z,1009.56
2023-03-11T10:53:01.183Z,1009.56
2023-03-11T10:55:01.200Z,1009.67
2023-03-11T10:57:01.221Z,1009.70
2023-03-11T10:59:01.122Z,1009.70
2023-03-11T11:01:01.234Z,1009.74
2023-03-11T11:03:01.182Z,1009.74
2023-03-11T11:05:01.185Z,1009.69
2023-03-11T11:07:01.569Z,1009.65
2023-03-11T11:09:01.200Z,1009.65
2023-03-11T11:11:01.227Z,1009.65
2023-03-11T11:13:01.145Z,1009.70
2023-03-11T11:15:01.266Z,1009.72
2023-03-11T11:17:01.244Z,1009.72
2023-03-11T11:19:31.225Z,1009.76
2023-03-11T11:21:31.204Z,1009.76
2023-03-11T11:23:31.209Z,1009.78
2023-03-11T11:25:31.289Z,1009.75
2023-03-11T11:27:31.253Z,1009.75
2023-03-11T11:29:31.166Z,1009.71
2023-03-11T11:31:31.139Z,1009.71
2023-03-11T11:33:31.343Z,1009.75
2023-03-11T11:35:31.189Z,1009.78
2023-03-11T11:37:31.200Z,1009.82
2023-03-11T11:39:31.303Z,1009.82
2023-03-11T11:41:31.227Z,1009.81
2023-03-11T11:43:31.246Z,1009.81
2023-03-11T11:45:31.216Z,1009.78
2023-03-11T11:47:31.164Z,1009.74
2023-03-11T11:49:31.202Z,1009.74
2023-03-11T11:51:31.148Z,1009.74
2023-03-11T11:53:31.135Z,1009.69
2023-03-11T11:55:31.158Z,1009.70
2023-03-11T11:57:31.177Z,1009.64
2023-03-11T11:59:31.277Z,1009.64
2023-03-11T12:01:31.180Z,1009.64
2023-03-11T12:03:31.221Z,1009.61
2023-03-11T12:05:31.194Z,1009.63
2023-03-11T12:07:31.189Z,1009.62
2023-03-11T12:09:31.160Z,1009.62
2023-03-11T12:11:31.267Z,1009.52
2023-03-11T12:13:31.205Z,1009.54
2023-03-11T12:15:31.183Z,1009.50
2023-03-11T12:17:31.303Z,1009.50
2023-03-11T12:19:31.217Z,1009.50
2023-03-11T12:21:31.205Z,1009.46
2023-03-11T12:23:31.231Z,1009.49
2023-03-11T12:25:31.290Z,1009.47
2023-03-11T12:27:31.269Z,1009.47
2023-03-11T12:29:31.279Z,1009.41
2023-03-11T12:31:31.275Z,1009.41
2023-03-11T12:33:31.173Z,1009.41
2023-03-11T12:35:31.250Z,1009.41
2023-03-11T12:37:31.258Z,1009.41
2023-03-11T12:39:31.240Z,1009.41
2023-03-11T12:41:31.285Z,1009.41
2023-03-11T12:43:31.293Z,1009.41
2023-03-11T12:45:31.302Z,1009.41
2023-03-11T12:47:32.019Z,1009.32
2023-03-11T12:49:31.209Z,1009.32
2023-03-11T12:51:31.229Z,1009.32
2023-03-11T12:53:31.246Z,1009.32
2023-03-11T12:55:31.278Z,1009.32
2023-03-11T12:57:31.299Z,1009.32
2023-03-11T12:59:31.301Z,1009.32
2023-03-11T13:01:31.322Z,1009.32
2023-03-11T13:03:31.240Z,1009.32
2023-03-11T13:05:31.248Z,1009.32
2023-03-11T13:07:31.279Z,1009.32
2023-03-11T13:09:31.617Z,1009.32
2023-03-11T13:11:31.294Z,1009.32
2023-03-11T13:13:31.309Z,1009.32
2023-03-11T13:16:01.348Z,1009.32
2023-03-11T13:18:01.292Z,1009.32
2023-03-11T13:20:01.234Z,1009.32
2023-03-11T13:22:01.234Z,1009.32
2023-03-11T13:24:01.313Z,1009.32
2023-03-11T13:26:01.242Z,1009.32
2023-03-11T13:28:01.375Z,1009.32
2023-03-11T13:30:01.317Z,1009.32
2023-03-11T13:32:01.319Z,1009.32
2023-03-11T13:34:01.227Z,1009.32
2023-03-11T13:36:01.317Z,1009.32
2023-03-11T13:38:01.305Z,1009.32
2023-03-11T13:40:01.330Z,1009.32
2023-03-11T13:42:01.318Z,1009.32
2023-03-11T13:44:01.346Z,1009.32
2023-03-11T13:46:01.366Z,1009.32
2023-03-11T13:48:01.351Z,1009.32
2023-03-11T13:50:02.421Z,1009.32
2023-03-11T13:52:01.280Z,1009.32
2023-03-11T13:54:01.315Z,1009.32
2023-03-11T13:56:01.306Z,1009.32
2023-03-11T13:58:01.302Z,1009.61
2023-03-11T14:00:01.333Z,1009.57
2023-03-11T14:02:01.371Z,1009.61
2023-03-11T14:04:01.323Z,1009.61
2023-03-11T14:06:01.303Z,1009.61
2023-03-11T14:08:01.316Z,1009.52
2023-03-11T14:10:01.324Z,1009.52
2023-03-11T14:12:01.302Z,1009.45
2023-03-11T14:14:01.334Z,1009.45
2023-03-11T14:16:01.272Z,1009.46
2023-03-11T14:18:01.352Z,1009.46
2023-03-11T14:20:01.302Z,1009.46
2023-03-11T14:22:01.292Z,1009.36
2023-03-11T14:24:01.296Z,1009.36
2023-03-11T14:26:01.310Z,1009.43
2023-03-11T14:28:01.414Z,1009.37
2023-03-11T14:30:01.451Z,1009.37
2023-03-11T14:32:01.420Z,1009.37
2023-03-11T14:34:01.270Z,1009.37
2023-03-11T14:36:01.409Z,1009.37
2023-03-11T14:38:01.332Z,1009.37
2023-03-11T14:40:01.324Z,1009.37
2023-03-11T14:42:01.320Z,1009.37
2023-03-11T14:44:01.361Z,1009.72
2023-03-11T14:46:01.385Z,1009.70
2023-03-11T14:48:01.381Z,1009.70
2023-03-11T14:50:01.475Z,1009.70
2023-03-11T14:52:01.291Z,1009.70
2023-03-11T14:54:01.379Z,1009.67
2023-03-11T14:56:01.410Z,1009.71
2023-03-11T14:58:01.376Z,1009.71
2023-03-11T15:00:01.418Z,1009.71
2023-03-11T15:02:01.292Z,1009.71
2023-03-11T15:04:01.488Z,1009.61
2023-03-11T15:06:01.291Z,1009.61
2023-03-11T15:08:01.326Z,1009.61
2023-03-11T15:10:01.388Z,1009.60
2023-03-11T15:12:02.132Z,1009.60
2023-03-11T15:14:01.480Z,1009.60
2023-03-11T15:16:31.650Z,1009.67
2023-03-11T15:18:31.444Z,1009.63
2023-03-11T15:20:31.549Z,1009.63
2023-03-11T15:22:31.421Z,1009.60
2023-03-11T15:24:31.336Z,1009.54
2023-03-11T15:26:31.366Z,1009.55
2023-03-11T15:28:31.448Z,1009.53
2023-03-11T15:30:31.531Z,1009.53
2023-03-11T15:32:31.446Z,1009.53
2023-03-11T15:34:31.476Z,1009.55
2023-03-11T15:36:31.556Z,1009.47
2023-03-11T15:38:31.376Z,1009.47
2023-03-11T15:40:44.350Z,1009.47
2023-03-11T15:44:16.876Z,1009.77
2023-03-11T15:46:16.943Z,1009.77
2023-03-11T15:48:16.894Z,1009.77
2023-03-11T15:50:24.253Z,1009.77
2023-03-11T15:52:16.911Z,1009.97
2023-03-11T15:54:16.899Z,1009.97
2023-03-11T15:56:16.798Z,1010.10
2023-03-11T15:58:16.846Z,1010.10
2023-03-11T16:00:16.890Z,1010.10
2023-03-11T16:02:16.865Z,1010.10
2023-03-11T16:04:17.079Z,1010.00
2023-03-11T16:06:16.902Z,1009.92
2023-03-11T16:08:16.839Z,1009.92
2023-03-11T16:10:16.951Z,1009.95
2023-03-11T16:12:16.844Z,1009.95
2023-03-11T16:14:46.896Z,1010.09
2023-03-11T16:16:46.868Z,1010.09
2023-03-11T16:18:46.926Z,1010.12
2023-03-11T16:20:46.898Z,1010.12
2023-03-11T16:22:46.948Z,1010.14
2023-03-11T16:24:46.885Z,1010.16
2023-03-11T16:26:46.852Z,1010.16
2023-03-11T16:28:46.886Z,1010.19
2023-03-11T16:30:46.868Z,1010.19
2023-03-11T16:32:46.921Z,1010.22
2023-03-11T16:34:47.598Z,1010.22
2023-03-11T16:36:46.917Z,1010.25
2023-03-11T16:38:46.866Z,1010.28
2023-03-11T16:40:46.902Z,1010.28
2023-03-11T16:42:46.816Z,1010.22
2023-03-11T16:44:46.904Z,1010.22
2023-03-11T16:46:46.980Z,1010.22
2023-03-11T16:48:46.911Z,1010.22
2023-03-11T16:50:47.014Z,1010.22
2023-03-11T16:52:46.947Z,1010.22
2023-03-11T16:54:46.842Z,1010.34
2023-03-11T16:56:46.852Z,1010.32
2023-03-11T16:58:46.878Z,1010.32
2023-03-11T17:00:46.953Z,1010.35
2023-03-11T17:02:46.926Z,1010.35
2023-03-11T17:04:46.984Z,1010.35
2023-03-11T17:06:46.940Z,1010.38
2023-03-11T17:08:46.960Z,1010.38
2023-03-11T17:10:46.927Z,1010.48
2023-03-11T17:12:46.882Z,1010.44
2023-03-11T17:14:46.896Z,1010.44
2023-03-11T17:16:46.915Z,1010.44
2023-03-11T17:18:46.939Z,1010.44
2023-03-11T17:20:46.939Z,1010.55
2023-03-11T17:22:46.966Z,1010.59
2023-03-11T17:24:46.986Z,1010.59
2023-03-11T17:26:46.922Z,1010.59
2023-03-11T17:28:46.940Z,1010.70
2023-03-11T17:30:46.932Z,1010.76
2023-03-11T17:32:46.964Z,1010.75
2023-03-11T17:34:46.926Z,1010.75
2023-03-11T17:36:46.851Z,1010.75
2023-03-11T17:38:46.980Z,1010.83
2023-03-11T17:40:46.907Z,1010.86
2023-03-11T17:42:46.865Z,1010.96
2023-03-11T17:44:51.871Z,1010.96
2023-03-11T17:46:46.987Z,1011.01
2023-03-11T17:48:46.949Z,1011.06
2023-03-11T17:50:46.956Z,1011.08
2023-03-11T17:52:46.873Z,1011.08
2023-03-11T17:54:46.879Z,1011.08
2023-03-11T17:56:46.916Z,1011.08
2023-03-11T17:58:46.846Z,1011.20
2023-03-11T18:00:46.852Z,1011.22
2023-03-11T18:02:46.851Z,1011.27
2023-03-11T18:05:18.677Z,1011.27
2023-03-11T18:07:16.885Z,1011.31
2023-03-11T18:09:16.977Z,1011.31
2023-03-11T18:11:18.888Z,1011.35
2023-03-11T18:13:17.083Z,1011.35
2023-03-11T18:15:16.915Z,1011.35
2023-03-11T18:17:18.483Z,1011.38
2023-03-11T18:19:16.937Z,1011.41
2023-03-11T18:21:16.991Z,1011.41
2023-03-11T18:23:16.906Z,1011.41
2023-03-11T18:25:16.849Z,1011.45
2023-03-11T18:27:16.924Z,1011.45
2023-03-11T18:29:16.943Z,1011.44
2023-03-11T18:31:17.006Z,1011.45
2023-03-11T18:33:17.173Z,1011.45
2023-03-11T18:35:16.968Z,1011.51
2023-03-11T18:37:16.978Z,1011.51
2023-03-11T18:39:16.904Z,1011.51
2023-03-11T18:41:16.916Z,1011.59
2023-03-11T18:43:16.875Z,1011.59
2023-03-11T18:45:16.955Z,1011.59
2023-03-11T18:47:16.944Z,1011.70
2023-03-11T18:49:17.010Z,1011.73
2023-03-11T18:51:16.975Z,1011.73
2023-03-11T18:53:16.941Z,1011.73
2023-03-11T18:55:16.889Z,1011.80
2023-03-11T18:57:16.992Z,1011.80
2023-03-11T18:59:16.988Z,1011.83
2023-03-11T19:01:17.007Z,1011.83
2023-03-11T19:03:16.983Z,1011.82
2023-03-11T19:05:17.249Z,1011.83
2023-03-11T19:07:17.048Z,1011.83
2023-03-11T19:09:17.000Z,1011.83
2023-03-11T19:11:16.956Z,1011.83
2023-03-11T19:13:16.949Z,1011.83
2023-03-11T19:15:16.986Z,1011.83
2023-03-11T19:17:16.987Z,1011.83
2023-03-11T19:19:16.986Z,1011.83
2023-03-11T19:21:17.000Z,1011.98
2023-03-11T19:23:17.011Z,1011.98
2023-03-11T19:25:16.963Z,1011.98
2023-03-11T19:27:16.964Z,1011.93
2023-03-11T19:29:17.024Z,1011.93
2023-03-11T19:31:17.098Z,1011.93
2023-03-11T19:33:16.992Z,1011.93
2023-03-11T19:35:17.031Z,1011.98
2023-03-11T19:37:17.042Z,1011.98
2023-03-11T19:39:17.028Z,1011.98
2023-03-11T19:41:16.977Z,1011.97
2023-03-11T19:43:16.903Z,1012.00
2023-03-11T19:45:17.063Z,1012.06
2023-03-11T19:47:17.020Z,1012.06
2023-03-11T19:49:17.005Z,1012.04
2023-03-11T19:51:17.059Z,1012.04
2023-03-11T19:53:47.064Z,1012.04
2023-03-11T19:55:47.012Z,1012.04
2023-03-11T19:57:46.968Z,1012.04
2023-03-11T19:59:47.067Z,1012.04
2023-03-11T20:01:47.063Z,1012.04
2023-03-11T20:03:47.057Z,1012.04
2023-03-11T20:05:47.034Z,1012.21
2023-03-11T20:07:47.029Z,1012.21
2023-03-11T20:09:46.919Z,1012.23
2023-03-11T20:11:46.967Z,1012.23
2023-03-11T20:13:47.016Z,1012.26
2023-03-11T20:15:47.199Z,1012.26
2023-03-11T20:17:47.003Z,1012.26
2023-03-11T20:19:47.075Z,1012.26
2023-03-11T20:21:47.049Z,1012.26
2023-03-11T20:23:47.066Z,1012.27
2023-03-11T20:25:47.005Z,1012.27
2023-03-11T20:27:47.143Z,1012.27
2023-03-11T20:29:47.009Z,1012.27
2023-03-11T20:31:47.136Z,1012.27
2023-03-11T20:33:47.166Z,1012.41
2023-03-11T20:35:47.147Z,1012.41
2023-03-11T20:37:46.952Z,1012.41
2023-03-11T20:39:47.017Z,1012.41
2023-03-11T20:41:47.023Z,1012.35
2023-03-11T20:43:47.050Z,1012.35
2023-03-11T20:45:47.042Z,1012.31
2023-03-11T20:47:47.159Z,1012.31
2023-03-11T20:49:47.120Z,1012.37
2023-03-11T20:51:47.076Z,1012.38
2023-03-11T20:53:47.072Z,1012.39
2023-03-11T20:55:46.967Z,1012.39
2023-03-11T20:57:47.034Z,1012.39
2023-03-11T20:59:47.118Z,1012.39
2023-03-11T21:01:47.060Z,1012.57
2023-03-11T21:03:47.140Z,1012.57
2023-03-11T21:05:47.098Z,1012.57
2023-03-11T21:07:47.050Z,1012.57
2023-03-11T21:09:46.982Z,1012.57
2023-03-11T21:11:47.006Z,1012.57
2023-03-11T21:13:47.107Z,1012.57
2023-03-11T21:15:47.022Z,1012.57
2023-03-11T21:17:47.082Z,1012.57
2023-03-11T21:19:47.196Z,1012.57
2023-03-11T21:21:47.112Z,1012.57
2023-03-11T21:23:47.120Z,1012.55
2023-03-11T21:25:47.242Z,1012.55
2023-03-11T21:27:47.008Z,1012.55
2023-03-11T21:29:47.049Z,1012.55
2023-03-11T21:31:47.178Z,1012.55
2023-03-11T21:33:47.212Z,1012.55
2023-03-11T21:35:47.121Z,1012.55
2023-03-11T21:37:47.266Z,1012.55
2023-03-11T21:39:47.118Z,1012.67
2023-03-11T21:42:17.123Z,1012.69
2023-03-11T21:44:17.101Z,1012.69
2023-03-11T21:46:17.083Z,1012.69
2023-03-11T21:48:17.109Z,1012.69
2023-03-11T21:50:17.137Z,1012.69
2023-03-11T21:52:16.977Z,1012.69
2023-03-11T21:54:17.006Z,1012.69
2023-03-11T21:56:17.040Z,1012.69
2023-03-11T21:58:17.017Z,1012.69
2023-03-11T22:00:17.077Z,1012.69
2023-03-11T22:02:17.225Z,1012.69
2023-03-11T22:04:17.254Z,1012.69
2023-03-11T22:06:17.112Z,1012.69
2023-03-11T22:08:17.026Z,1012.69
2023-03-11T22:10:17.077Z,1012.69
2023-03-11T22:12:17.196Z,1012.69
2023-03-11T22:14:17.092Z,1012.69
2023-03-11T22:16:17.216Z,1012.67
2023-03-11T22:18:17.180Z,1012.60
2023-03-11T22:20:17.102Z,1012.60
2023-03-11T22:22:17.178Z,1012.60
2023-03-11T22:24:17.068Z,1012.61
2023-03-11T22:26:17.116Z,1012.61
2023-03-11T22:28:17.111Z,1012.61
2023-03-11T22:30:17.347Z,1012.63
2023-03-11T22:32:17.215Z,1012.63
2023-03-11T22:34:17.115Z,1012.63
2023-03-11T22:36:17.100Z,1012.63
2023-03-11T22:38:17.095Z,1012.70
2023-03-11T22:40:17.115Z,1012.70
2023-03-11T22:42:17.191Z,1012.70
2023-03-11T22:44:17.129Z,1012.71
2023-03-11T22:46:17.224Z,1012.71
2023-03-11T22:48:17.221Z,1012.71
2023-03-11T22:50:17.169Z,1012.71
2023-03-11T22:54:17.186Z,1012.71
2023-03-11T22:56:26.378Z,1012.71
2023-03-11T22:58:26.495Z,1012.71
2023-03-11T23:00:26.421Z,1012.71
2023-03-11T23:02:26.462Z,1012.71
2023-03-11T23:04:26.460Z,1012.79
2023-03-11T23:06:26.473Z,1012.79
2023-03-11T23:08:26.486Z,1012.79
2023-03-11T23:10:26.471Z,1012.79
2023-03-11T23:12:26.423Z,1012.79
2023-03-11T23:14:37.910Z,1012.79
2023-03-11T23:16:26.492Z,1012.79
2023-03-11T23:18:26.532Z,1012.79
2023-03-11T23:20:26.444Z,1012.79
2023-03-11T23:22:26.464Z,1012.79
2023-03-11T23:24:26.452Z,1012.79
2023-03-11T23:26:26.492Z,1012.79
2023-03-11T23:28:26.428Z,1012.79
2023-03-11T23:30:26.447Z,1012.79
2023-03-11T23:32:26.526Z,1012.79
2023-03-11T23:34:26.476Z,1012.79
2023-03-11T23:36:26.468Z,1012.87
2023-03-11T23:38:26.521Z,1012.87
2023-03-11T23:40:26.530Z,1012.87
2023-03-11T23:42:26.606Z,1012.87
2023-03-11T23:44:26.414Z,1012.87
2023-03-11T23:46:26.544Z,1012.91
2023-03-11T23:48:26.487Z,1012.91
2023-03-11T23:50:26.539Z,1012.91
2023-03-11T23:52:26.501Z,1012.91
2023-03-11T23:54:26.370Z,1012.91
2023-03-11T23:56:26.520Z,1012.91
2023-03-11T23:58:26.465Z,1012.91
